Native Sun — WDD2862 — position and weather

sailwx.info

Track history (hours):
 
Tides and Currents Weather Stations Pressure Air Temp Water Temp Dewpoint Dewpoint Depression Visibility Wind Speed Wind Dir Waves Ship Positions

Native Sun

Owner: SVELLING, ERIC, BARNEGAT LIGHT, NJ. More information available from US FCC via Universal Licensing System and Coast Guard Vessel Documentation Center.

Last reported at 2018-Apr-24 15:53 UTC. Time now 2018-Apr-25 02:56 UTC.
Position N 39°46' W 074°07'.

Length 14 m.

Type: Fishing. MMSI: 367120830.

Date/timePositionNaut miles runAvg speedWind from/ knotsBaromVisibWave heightAir tempDewpointWater temp
2018-Apr-24 15:53N 39°46' W 074°07'0 0.0
2018-Apr-24 15:26N 39°46' W 074°07'1 2.0
2018-Apr-24 15:00N 39°46' W 074°05'4 8.4
2018-Apr-24 14:29N 39°46' W 073°60'6 1.9
2018-Apr-24 11:23N 39°48' W 073°52'4 9.6
2018-Apr-24 10:58N 39°48' W 073°57'4 9.1
2018-Apr-24 10:29N 39°46' W 074°03'3 0.2
2018-Apr-23 18:40N 39°46' W 074°07'1 6.4
2018-Apr-23 18:26N 39°46' W 074°05'7 1.0
2018-Apr-23 11:13N 39°49' W 073°57'2 8.7
2018-Apr-23 10:58N 39°49' W 073°60'4 8.7
2018-Apr-23 10:28N 39°46' W 074°04'2 0.1
2018-Apr-22 14:59N 39°46' W 074°07'2 4.4
2018-Apr-22 14:27N 39°46' W 074°04'6 4.6
2018-Apr-22 13:05N 39°49' W 073°56'1 8.5
2018-Apr-22 12:59N 39°48' W 073°57'4 8.0
2018-Apr-22 12:28N 39°47' W 074°02'  
2018-Apr-19 14:45N 39°46' W 074°07'0 0.4
2018-Apr-19 14:30N 39°46' W 074°07'4 8.1
2018-Apr-19 13:58N 39°47' W 074°01'3 1.2
2018-Apr-19 11:38N 39°48' W 073°57'1 4.5
2018-Apr-19 11:26N 39°47' W 073°58'4 8.1
2018-Apr-19 10:57N 39°46' W 074°03'3 0.2
2018-Apr-18 21:43N 39°46' W 074°07'1 4.2
2018-Apr-18 21:29N 39°46' W 074°05'5 8.8
2018-Apr-18 20:56N 39°47' W 073°59'2 3.3
2018-Apr-18 20:18N 39°48' W 073°57'2 7.2
2018-Apr-18 19:59N 39°47' W 073°60'  
Track history (hours):
 
Tides and Currents Weather Stations Pressure Air Temp Water Temp Dewpoint Dewpoint Depression Visibility Wind Speed Wind Dir Waves Ship Positions

Native Sun

Owner: SVELLING, ERIC, BARNEGAT LIGHT, NJ. More information available from US FCC via Universal Licensing System and Coast Guard Vessel Documentation Center.

Last reported at 2018-Apr-24 15:53 UTC. Time now 2018-Apr-25 02:56 UTC.
Position N 39°46' W 074°07'.

Length 14 m.

Type: Fishing. MMSI: 367120830.

Date/timePositionNaut miles runAvg speedWind from/ knotsBaromVisibWave heightAir tempDewpointWater temp
2018-Apr-24 15:53N 39°46' W 074°07'0 0.0
2018-Apr-24 15:26N 39°46' W 074°07'1 2.0
2018-Apr-24 15:00N 39°46' W 074°05'4 8.4
2018-Apr-24 14:29N 39°46' W 073°60'6 1.9
2018-Apr-24 11:23N 39°48' W 073°52'4 9.6
2018-Apr-24 10:58N 39°48' W 073°57'4 9.1
2018-Apr-24 10:29N 39°46' W 074°03'3 0.2
2018-Apr-23 18:40N 39°46' W 074°07'1 6.4
2018-Apr-23 18:26N 39°46' W 074°05'7 1.0
2018-Apr-23 11:13N 39°49' W 073°57'2 8.7
2018-Apr-23 10:58N 39°49' W 073°60'4 8.7
2018-Apr-23 10:28N 39°46' W 074°04'2 0.1
2018-Apr-22 14:59N 39°46' W 074°07'2 4.4
2018-Apr-22 14:27N 39°46' W 074°04'6 4.6
2018-Apr-22 13:05N 39°49' W 073°56'1 8.5
2018-Apr-22 12:59N 39°48' W 073°57'4 8.0
2018-Apr-22 12:28N 39°47' W 074°02'  
2018-Apr-19 14:45N 39°46' W 074°07'0 0.4
2018-Apr-19 14:30N 39°46' W 074°07'4 8.1
2018-Apr-19 13:58N 39°47' W 074°01'3 1.2
2018-Apr-19 11:38N 39°48' W 073°57'1 4.5
2018-Apr-19 11:26N 39°47' W 073°58'4 8.1
2018-Apr-19 10:57N 39°46' W 074°03'3 0.2
2018-Apr-18 21:43N 39°46' W 074°07'1 4.2
2018-Apr-18 21:29N 39°46' W 074°05'5 8.8
2018-Apr-18 20:56N 39°47' W 073°59'2 3.3
2018-Apr-18 20:18N 39°48' W 073°57'2 7.2
2018-Apr-18 19:59N 39°47' W 073°60'  

Dump ship's entire track history